AirNav   MODERNIZE NOT PRIVATIZE ATC
 
 412 users online  

9MN1 Troll Farm Airport
Cambridge, Minnesota, USA

GOING TO CAMBRIDGE?


FAA INFORMATION EFFECTIVE 20 JULY 2017

Location

FAA Identifier: 9MN1
Lat/Long: 45-36-41.8640N / 093-11-50.8040W
45-36.697733N / 093-11.846733W
45.6116289 / -93.1974456
(estimated)
Elevation: 960 ft. / 293 m (estimated)
Variation: 02E (1995)
From city: 5 miles N of CAMBRIDGE, MN
Time zone: UTC -5 (UTC -6 during Standard Time)
Zip code: 55008

Airport Operations

Airport use: Private use. Permission required prior to landing
Activation date: 06/1998
Control tower: no
ARTCC: MINNEAPOLIS CENTER
FSS: PRINCETON FLIGHT SERVICE STATION
Attendance: IREG
Wind indicator: yes
Segmented circle: no

Airport Communications

WX AWOS-3 at CBG (4 nm SW): 121.125 (763-689-9562)
WX AWOS-3 at ROS (11 nm NE): 118.8 (320-358-3339)
WX AWOS-3 at JMR (17 nm N): 123.925 (320-679-1629)
WX AWOS-3 at PNM (18 nm W): 119.025 (763-389-0615)

Nearby radio navigation aids

VOR radial/distance  VOR name  Freq  Var
GEPr009/28.9GOPHER VORTAC117.3006E
STCr081/36.4ST CLOUD VOR/DME112.1003E
RZNr248/36.7SIREN VOR/DME109.4002E

 
NDB name  Hdg/Dist  Freq  Var  ID
CAMBRIDGE039/4.235001ECBG -.-. -... --.
RUSH CITY241/11.428202EROS .-. --- ...
MORA170/17.032700WJMR .--- -- .-.
PRINCETON078/17.536803EPNM .--. -. --
BIG DOCTOR251/37.020301WBXR -... -..- .-.

Airport Services

Runway Information

Runway 9/27

Dimensions: 2100 x 75 ft. / 640 x 23 m
Surface: turf
RUNWAY 9  RUNWAY 27
Traffic pattern: leftleft

Airport Ownership and Management from official FAA records

Ownership: Privately-owned
Owner: JOHN C TROOLIN
35499 BATAAN ST NE
CAMBRIDGE, MN 55008
Phone (763) 689-5690
Manager: JOHN C TROOLIN
35499 BATAAN ST NE
CAMBRIDGE, MN 55008
Phone (763) 689-5690

Airport Operational Statistics

Aircraft based on the field: 1
Single engine airplanes: 1
    

Instrument Procedures

There are no published instrument procedures at 9MN1.

Some nearby airports with instrument procedures:

KCBG - Cambridge Municipal Airport (4 nm SW)
KROS - Rush City Regional Airport (11 nm NE)
KJMR - Mora Municipal Airport (17 nm N)
KPNM - Princeton Municipal Airport (18 nm W)
KGTG - Grantsburg Municipal Airport (25 nm NE)
 
Loc | Ops | Rwys | IFR | FBO | Links
Com | Nav | Svcs | Stats | Notes


 
Area around 9MN1 (Troll Farm Airport)
 
Road maps at: MapQuest Bing Google
 
Aerial photo
No photo
 
Sectional chart

 
Airport distance calculator
Flying to Troll Farm Airport? Find the distance to fly.

From to 9MN1

Sunrise and sunset
Times for 28-Jul-2017
 Local
(UTC-5)
 Zulu
(UTC)
Morning civil twilight05:1810:18
Sunrise05:5310:53
Sunset20:4601:46
Evening civil twilight21:2102:21

Current date and time
Zulu (UTC)  28-Jul-2017 10:28:35
Local (UTC-5)  28-Jul-2017 05:28:35
 
METAR
KCBG 
4nm SW 
281015Z AUTO 00000KT 7SM CLR 16/13 A3008 RMK AO2
KROS 
12nm NE 
281014Z AUTO 00000KT 4SM BR SCT110 14/13 A3010 RMK AO2 T01350128
KJMR 
17nm N 
281014Z AUTO 00000KT 5SM BR CLR 13/13 A3011 RMK AO2
KPNM 
17nm W 
281017Z AUTO 00000KT 3/4SM BR VV005 14/14 A3010 RMK AO2 VIS 1/4V2 1/2
TAF
KSTC 
36nm W 
280520Z 2806/2906 VRB03KT P6SM SCT250 FM281600 11006KT P6SM SCT060 SCT110
KRNH 
39nm SE 
280520Z 2806/2906 03004KT P6SM SKC TEMPO 2809/2812 3SM MIFG FM281600 08005KT P6SM FEW060 SCT110
KMSP 
44nm S 
280815Z 2807/2912 03002KT P6SM SCT300 FM281600 09008KT P6SM SCT060 SCT110
NOTAMs
Click for the latest NOTAMs
NOTAMs are issued by the DoD/FAA and will open in a separate window not controlled by AirNav.

 

 
 

Would you like to see your business listed on this page?

 If your business provides an interesting product or service to pilots, flight crews, aircraft, or users of the Troll Farm Airport, you should consider listing it here.  To start the listing process, click on the button below
 
Add a business
 

Other Pages about Troll Farm Airport

Update a link
 
Copyright © AirNav, LLC. All rights reserved. Privacy Policy  Contact